sensor_id;sensor_type;location;lat;lon;timestamp;temperature;humidity
64869;DHT22;51349;52.424;10.840;2022-07-04T00:00:19;17.40;99.90
64869;DHT22;51349;52.424;10.840;2022-07-04T00:05:20;17.20;99.90
64869;DHT22;51349;52.424;10.840;2022-07-04T00:10:22;17.30;99.90
64869;DHT22;51349;52.424;10.840;2022-07-04T00:15:23;17.10;99.90
64869;DHT22;51349;52.424;10.840;2022-07-04T00:20:23;17.00;99.90
64869;DHT22;51349;52.424;10.840;2022-07-04T00:25:24;16.70;99.90
64869;DHT22;51349;52.424;10.840;2022-07-04T00:30:24;16.80;99.90
64869;DHT22;51349;52.424;10.840;2022-07-04T00:35:25;16.70;99.90
64869;DHT22;51349;52.424;10.840;2022-07-04T00:40:26;16.70;99.90
64869;DHT22;51349;52.424;10.840;2022-07-04T00:45:26;16.50;99.90
64869;DHT22;51349;52.424;10.840;2022-07-04T00:50:27;16.50;99.90
64869;DHT22;51349;52.424;10.840;2022-07-04T00:55:28;16.40;99.90
64869;DHT22;51349;52.424;10.840;2022-07-04T01:00:30;16.40;99.90
64869;DHT22;51349;52.424;10.840;2022-07-04T01:05:30;16.30;99.90
64869;DHT22;51349;52.424;10.840;2022-07-04T01:10:31;16.20;99.90
64869;DHT22;51349;52.424;10.840;2022-07-04T01:15:36;16.10;99.90
64869;DHT22;51349;52.424;10.840;2022-07-04T01:20:36;16.00;99.90
64869;DHT22;51349;52.424;10.840;2022-07-04T01:25:37;15.90;99.90
64869;DHT22;51349;52.424;10.840;2022-07-04T01:30:38;15.80;99.90
64869;DHT22;51349;52.424;10.840;2022-07-04T01:35:39;15.70;99.90
64869;DHT22;51349;52.424;10.840;2022-07-04T01:40:39;15.80;99.90
64869;DHT22;51349;52.424;10.840;2022-07-04T01:45:40;15.80;99.90
64869;DHT22;51349;52.424;10.840;2022-07-04T01:50:41;15.70;99.90
64869;DHT22;51349;52.424;10.840;2022-07-04T01:55:41;15.60;99.90
64869;DHT22;51349;52.424;10.840;2022-07-04T02:00:42;15.50;99.90
64869;DHT22;51349;52.424;10.840;2022-07-04T02:06:01;15.40;99.90
64869;DHT22;51349;52.424;10.840;2022-07-04T02:11:02;15.50;99.90
64869;DHT22;51349;52.424;10.840;2022-07-04T02:16:03;15.40;99.90
64869;DHT22;51349;52.424;10.840;2022-07-04T02:21:03;15.40;99.90
64869;DHT22;51349;52.424;10.840;2022-07-04T02:26:04;15.30;99.90
64869;DHT22;51349;52.424;10.840;2022-07-04T02:31:05;15.30;99.90
64869;DHT22;51349;52.424;10.840;2022-07-04T02:36:05;15.20;99.90
64869;DHT22;51349;52.424;10.840;2022-07-04T02:41:06;15.20;99.90
64869;DHT22;51349;52.424;10.840;2022-07-04T02:46:06;15.10;99.90
64869;DHT22;51349;52.424;10.840;2022-07-04T02:51:07;15.00;99.90
64869;DHT22;51349;52.424;10.840;2022-07-04T02:56:08;14.90;99.90
64869;DHT22;51349;52.424;10.840;2022-07-04T03:01:08;15.00;99.90
64869;DHT22;51349;52.424;10.840;2022-07-04T03:06:10;14.90;99.90
64869;DHT22;51349;52.424;10.840;2022-07-04T03:11:11;14.70;99.90
64869;DHT22;51349;52.424;10.840;2022-07-04T03:16:12;14.70;99.90
64869;DHT22;51349;52.424;10.840;2022-07-04T03:21:12;14.60;99.90
64869;DHT22;51349;52.424;10.840;2022-07-04T03:26:13;14.50;99.90
64869;DHT22;51349;52.424;10.840;2022-07-04T03:31:17;14.50;99.90
64869;DHT22;51349;52.424;10.840;2022-07-04T03:36:18;14.50;99.90
64869;DHT22;51349;52.424;10.840;2022-07-04T03:41:19;14.60;99.90
64869;DHT22;51349;52.424;10.840;2022-07-04T03:46:19;14.50;99.90
64869;DHT22;51349;52.424;10.840;2022-07-04T03:51:20;14.60;99.90
64869;DHT22;51349;52.424;10.840;2022-07-04T03:56:22;14.50;99.90
64869;DHT22;51349;52.424;10.840;2022-07-04T04:01:23;14.70;99.90
64869;DHT22;51349;52.424;10.840;2022-07-04T04:06:23;14.60;99.90
64869;DHT22;51349;52.424;10.840;2022-07-04T04:11:24;14.70;99.90
64869;DHT22;51349;52.424;10.840;2022-07-04T04:16:25;14.70;99.90
64869;DHT22;51349;52.424;10.840;2022-07-04T04:21:25;14.80;99.90
64869;DHT22;51349;52.424;10.840;2022-07-04T04:26:26;14.90;99.90
64869;DHT22;51349;52.424;10.840;2022-07-04T04:31:27;15.00;99.90
64869;DHT22;51349;52.424;10.840;2022-07-04T04:36:27;15.20;99.90
64869;DHT22;51349;52.424;10.840;2022-07-04T04:41:28;15.20;99.90
64869;DHT22;51349;52.424;10.840;2022-07-04T04:46:29;15.30;99.90
64869;DHT22;51349;52.424;10.840;2022-07-04T04:51:29;15.50;99.90
64869;DHT22;51349;52.424;10.840;2022-07-04T04:56:30;15.40;99.90
64869;DHT22;51349;52.424;10.840;2022-07-04T05:01:30;15.60;99.90
64869;DHT22;51349;52.424;10.840;2022-07-04T05:06:31;15.70;99.90
64869;DHT22;51349;52.424;10.840;2022-07-04T05:11:32;15.80;99.90
64869;DHT22;51349;52.424;10.840;2022-07-04T05:16:33;15.80;99.90
64869;DHT22;51349;52.424;10.840;2022-07-04T05:21:34;15.90;99.90
64869;DHT22;51349;52.424;10.840;2022-07-04T05:26:34;16.10;99.90
64869;DHT22;51349;52.424;10.840;2022-07-04T05:31:35;16.20;99.90
64869;DHT22;51349;52.424;10.840;2022-07-04T05:36:36;16.30;99.90
64869;DHT22;51349;52.424;10.840;2022-07-04T05:41:36;16.40;99.90
64869;DHT22;51349;52.424;10.840;2022-07-04T05:46:37;16.50;99.90
64869;DHT22;51349;52.424;10.840;2022-07-04T05:51:41;16.60;99.90
64869;DHT22;51349;52.424;10.840;2022-07-04T05:56:41;16.50;99.90
64869;DHT22;51349;52.424;10.840;2022-07-04T06:01:42;16.80;99.90
64869;DHT22;51349;52.424;10.840;2022-07-04T06:06:43;16.60;99.90
64869;DHT22;51349;52.424;10.840;2022-07-04T06:11:44;16.70;99.90
64869;DHT22;51349;52.424;10.840;2022-07-04T06:16:45;16.90;99.90
64869;DHT22;51349;52.424;10.840;2022-07-04T06:21:45;17.00;99.90
64869;DHT22;51349;52.424;10.840;2022-07-04T06:26:46;17.00;99.90
64869;DHT22;51349;52.424;10.840;2022-07-04T06:31:47;17.20;99.90
64869;DHT22;51349;52.424;10.840;2022-07-04T06:36:48;17.40;99.90
64869;DHT22;51349;52.424;10.840;2022-07-04T06:41:48;17.70;99.90
64869;DHT22;51349;52.424;10.840;2022-07-04T06:46:49;17.90;99.90
64869;DHT22;51349;52.424;10.840;2022-07-04T06:51:51;18.20;99.90
64869;DHT22;51349;52.424;10.840;2022-07-04T06:56:51;18.20;99.90
64869;DHT22;51349;52.424;10.840;2022-07-04T07:01:52;18.40;99.90
64869;DHT22;51349;52.424;10.840;2022-07-04T07:06:53;18.50;99.90
64869;DHT22;51349;52.424;10.840;2022-07-04T07:11:53;19.00;99.90
64869;DHT22;51349;52.424;10.840;2022-07-04T07:16:54;19.60;99.90
64869;DHT22;51349;52.424;10.840;2022-07-04T07:21:54;19.80;99.50
64869;DHT22;51349;52.424;10.840;2022-07-04T07:26:56;20.50;99.80
64869;DHT22;51349;52.424;10.840;2022-07-04T07:31:59;21.30;99.60
64869;DHT22;51349;52.424;10.840;2022-07-04T07:37:00;21.10;96.10
64869;DHT22;51349;52.424;10.840;2022-07-04T07:42:01;21.20;97.90
64869;DHT22;51349;52.424;10.840;2022-07-04T07:47:02;20.80;95.80
64869;DHT22;51349;52.424;10.840;2022-07-04T07:52:03;21.30;94.90
64869;DHT22;51349;52.424;10.840;2022-07-04T07:57:04;21.80;94.70
64869;DHT22;51349;52.424;10.840;2022-07-04T08:02:04;22.40;93.80
64869;DHT22;51349;52.424;10.840;2022-07-04T08:07:15;21.80;94.00
64869;DHT22;51349;52.424;10.840;2022-07-04T08:12:15;21.60;94.80
64869;DHT22;51349;52.424;10.840;2022-07-04T08:17:16;22.50;94.70
64869;DHT22;51349;52.424;10.840;2022-07-04T08:22:16;22.40;94.80
64869;DHT22;51349;52.424;10.840;2022-07-04T08:27:17;22.70;94.30
64869;DHT22;51349;52.424;10.840;2022-07-04T08:32:18;21.60;93.50
64869;DHT22;51349;52.424;10.840;2022-07-04T08:37:18;23.00;94.20
64869;DHT22;51349;52.424;10.840;2022-07-04T08:42:20;23.70;92.00
64869;DHT22;51349;52.424;10.840;2022-07-04T08:47:24;24.40;91.60
64869;DHT22;51349;52.424;10.840;2022-07-04T08:52:37;23.80;88.10
64869;DHT22;51349;52.424;10.840;2022-07-04T08:57:39;24.10;90.40
64869;DHT22;51349;52.424;10.840;2022-07-04T09:03:01;24.40;90.70
64869;DHT22;51349;52.424;10.840;2022-07-04T09:08:03;24.50;87.50
64869;DHT22;51349;52.424;10.840;2022-07-04T09:13:09;24.20;92.40
64869;DHT22;51349;52.424;10.840;2022-07-04T09:18:31;23.20;88.20
64869;DHT22;51349;52.424;10.840;2022-07-04T09:23:39;24.90;88.90
64869;DHT22;51349;52.424;10.840;2022-07-04T09:28:44;25.30;87.10
64869;DHT22;51349;52.424;10.840;2022-07-04T09:39:12;23.80;84.40
64869;DHT22;51349;52.424;10.840;2022-07-04T09:44:14;25.20;85.20
64869;DHT22;51349;52.424;10.840;2022-07-04T09:49:15;24.50;83.20
64869;DHT22;51349;52.424;10.840;2022-07-04T09:59:26;23.50;84.70
64869;DHT22;51349;52.424;10.840;2022-07-04T10:04:49;24.30;78.20
64869;DHT22;51349;52.424;10.840;2022-07-04T10:09:54;24.30;79.00
64869;DHT22;51349;52.424;10.840;2022-07-04T10:14:55;24.80;82.60
64869;DHT22;51349;52.424;10.840;2022-07-04T10:19:56;24.30;78.40
64869;DHT22;51349;52.424;10.840;2022-07-04T10:24:56;25.00;77.50
64869;DHT22;51349;52.424;10.840;2022-07-04T10:30:02;24.40;77.50
64869;DHT22;51349;52.424;10.840;2022-07-04T10:35:04;24.90;77.40
64869;DHT22;51349;52.424;10.840;2022-07-04T10:40:05;25.10;82.90
64869;DHT22;51349;52.424;10.840;2022-07-04T10:45:07;23.90;82.30
64869;DHT22;51349;52.424;10.840;2022-07-04T10:50:09;25.20;81.90
64869;DHT22;51349;52.424;10.840;2022-07-04T10:55:13;25.80;78.50
64869;DHT22;51349;52.424;10.840;2022-07-04T11:00:14;25.90;76.40
64869;DHT22;51349;52.424;10.840;2022-07-04T11:05:15;24.90;79.90
64869;DHT22;51349;52.424;10.840;2022-07-04T11:20:34;25.00;74.80
64869;DHT22;51349;52.424;10.840;2022-07-04T11:25:35;24.80;78.30
64869;DHT22;51349;52.424;10.840;2022-07-04T11:30:36;24.50;70.50
64869;DHT22;51349;52.424;10.840;2022-07-04T11:35:37;24.30;71.30
64869;DHT22;51349;52.424;10.840;2022-07-04T11:40:45;24.30;71.30
64869;DHT22;51349;52.424;10.840;2022-07-04T11:46:10;24.40;71.10
64869;DHT22;51349;52.424;10.840;2022-07-04T11:51:17;24.30;71.00
64869;DHT22;51349;52.424;10.840;2022-07-04T11:56:18;24.40;72.30
64869;DHT22;51349;52.424;10.840;2022-07-04T12:01:27;24.70;74.20
64869;DHT22;51349;52.424;10.840;2022-07-04T12:06:28;24.70;71.20
64869;DHT22;51349;52.424;10.840;2022-07-04T12:11:57;24.60;71.50
64869;DHT22;51349;52.424;10.840;2022-07-04T12:17:14;24.00;68.90
64869;DHT22;51349;52.424;10.840;2022-07-04T12:22:28;24.00;70.00
64869;DHT22;51349;52.424;10.840;2022-07-04T12:27:30;24.00;70.00
64869;DHT22;51349;52.424;10.840;2022-07-04T12:32:51;24.10;70.30
64869;DHT22;51349;52.424;10.840;2022-07-04T12:38:14;24.60;70.70
64869;DHT22;51349;52.424;10.840;2022-07-04T12:43:15;24.00;70.20
64869;DHT22;51349;52.424;10.840;2022-07-04T12:48:24;25.00;73.10
64869;DHT22;51349;52.424;10.840;2022-07-04T12:53:25;24.50;72.60
64869;DHT22;51349;52.424;10.840;2022-07-04T12:58:26;24.80;75.10
64869;DHT22;51349;52.424;10.840;2022-07-04T13:03:26;25.10;75.30
64869;DHT22;51349;52.424;10.840;2022-07-04T13:08:27;25.20;68.60
64869;DHT22;51349;52.424;10.840;2022-07-04T13:13:28;25.10;68.90
64869;DHT22;51349;52.424;10.840;2022-07-04T13:18:29;24.80;70.20
64869;DHT22;51349;52.424;10.840;2022-07-04T13:23:31;24.80;69.90
64869;DHT22;51349;52.424;10.840;2022-07-04T13:28:31;24.70;68.80
64869;DHT22;51349;52.424;10.840;2022-07-04T13:33:32;24.60;67.20
64869;DHT22;51349;52.424;10.840;2022-07-04T13:38:33;24.80;69.70
64869;DHT22;51349;52.424;10.840;2022-07-04T13:43:33;25.20;70.30
64869;DHT22;51349;52.424;10.840;2022-07-04T13:48:34;25.20;68.30
64869;DHT22;51349;52.424;10.840;2022-07-04T13:53:35;24.70;67.40
64869;DHT22;51349;52.424;10.840;2022-07-04T13:58:37;25.40;67.10
64869;DHT22;51349;52.424;10.840;2022-07-04T14:03:38;25.00;65.60
64869;DHT22;51349;52.424;10.840;2022-07-04T14:08:39;25.00;66.90
64869;DHT22;51349;52.424;10.840;2022-07-04T14:13:40;25.00;67.20
64869;DHT22;51349;52.424;10.840;2022-07-04T14:18:40;24.40;66.50
64869;DHT22;51349;52.424;10.840;2022-07-04T14:23:41;24.20;68.80
64869;DHT22;51349;52.424;10.840;2022-07-04T14:28:43;24.80;71.80
64869;DHT22;51349;52.424;10.840;2022-07-04T14:33:49;25.20;66.80
64869;DHT22;51349;52.424;10.840;2022-07-04T14:38:51;24.50;68.40
64869;DHT22;51349;52.424;10.840;2022-07-04T14:43:52;24.80;71.10
64869;DHT22;51349;52.424;10.840;2022-07-04T14:48:57;25.00;70.10
64869;DHT22;51349;52.424;10.840;2022-07-04T14:53:58;25.10;70.30
64869;DHT22;51349;52.424;10.840;2022-07-04T14:58:59;25.60;68.30
64869;DHT22;51349;52.424;10.840;2022-07-04T15:03:59;25.50;68.80
64869;DHT22;51349;52.424;10.840;2022-07-04T15:09:03;25.50;63.70
64869;DHT22;51349;52.424;10.840;2022-07-04T15:14:06;25.70;64.60
64869;DHT22;51349;52.424;10.840;2022-07-04T15:19:07;25.50;65.50
64869;DHT22;51349;52.424;10.840;2022-07-04T15:24:08;25.40;70.50
64869;DHT22;51349;52.424;10.840;2022-07-04T15:29:12;24.90;64.70
64869;DHT22;51349;52.424;10.840;2022-07-04T15:34:14;25.20;66.00
64869;DHT22;51349;52.424;10.840;2022-07-04T15:39:15;25.40;67.10
64869;DHT22;51349;52.424;10.840;2022-07-04T15:44:16;24.70;65.50
64869;DHT22;51349;52.424;10.840;2022-07-04T15:49:17;24.70;68.40
64869;DHT22;51349;52.424;10.840;2022-07-04T15:54:17;25.70;64.60
64869;DHT22;51349;52.424;10.840;2022-07-04T15:59:18;26.40;68.20
64869;DHT22;51349;52.424;10.840;2022-07-04T16:04:19;25.50;66.40
64869;DHT22;51349;52.424;10.840;2022-07-04T16:09:20;25.40;64.40
64869;DHT22;51349;52.424;10.840;2022-07-04T16:14:20;25.00;66.30
64869;DHT22;51349;52.424;10.840;2022-07-04T16:19:21;25.40;68.00
64869;DHT22;51349;52.424;10.840;2022-07-04T16:24:22;25.10;66.00
64869;DHT22;51349;52.424;10.840;2022-07-04T16:29:23;25.70;65.60
64869;DHT22;51349;52.424;10.840;2022-07-04T16:34:23;26.20;69.40
64869;DHT22;51349;52.424;10.840;2022-07-04T16:39:24;26.20;66.60
64869;DHT22;51349;52.424;10.840;2022-07-04T16:44:24;26.30;62.40
64869;DHT22;51349;52.424;10.840;2022-07-04T16:49:26;25.80;62.20
64869;DHT22;51349;52.424;10.840;2022-07-04T16:54:27;25.40;62.00
64869;DHT22;51349;52.424;10.840;2022-07-04T16:59:28;25.20;62.60
64869;DHT22;51349;52.424;10.840;2022-07-04T17:04:28;25.10;61.80
64869;DHT22;51349;52.424;10.840;2022-07-04T17:09:29;25.70;64.30
64869;DHT22;51349;52.424;10.840;2022-07-04T17:14:30;26.00;62.20
64869;DHT22;51349;52.424;10.840;2022-07-04T17:19:30;25.30;61.70
64869;DHT22;51349;52.424;10.840;2022-07-04T17:24:31;25.20;61.90
64869;DHT22;51349;52.424;10.840;2022-07-04T17:29:35;25.20;61.50
64869;DHT22;51349;52.424;10.840;2022-07-04T17:34:36;25.00;62.10
64869;DHT22;51349;52.424;10.840;2022-07-04T17:39:36;25.20;61.20
64869;DHT22;51349;52.424;10.840;2022-07-04T17:44:37;24.90;61.10
64869;DHT22;51349;52.424;10.840;2022-07-04T17:49:38;24.70;62.00
64869;DHT22;51349;52.424;10.840;2022-07-04T17:54:39;24.50;63.00
64869;DHT22;51349;52.424;10.840;2022-07-04T17:59:39;24.30;63.90
64869;DHT22;51349;52.424;10.840;2022-07-04T18:04:40;24.30;63.90
64869;DHT22;51349;52.424;10.840;2022-07-04T18:09:41;24.40;64.80
64869;DHT22;51349;52.424;10.840;2022-07-04T18:14:42;24.00;65.40
64869;DHT22;51349;52.424;10.840;2022-07-04T18:19:44;23.90;66.60
64869;DHT22;51349;52.424;10.840;2022-07-04T18:24:45;23.70;67.30
64869;DHT22;51349;52.424;10.840;2022-07-04T18:29:45;23.90;67.10
64869;DHT22;51349;52.424;10.840;2022-07-04T18:34:46;23.80;66.30
64869;DHT22;51349;52.424;10.840;2022-07-04T18:39:47;23.70;69.00
64869;DHT22;51349;52.424;10.840;2022-07-04T18:44:48;23.50;68.80
64869;DHT22;51349;52.424;10.840;2022-07-04T18:49:51;23.50;69.40
64869;DHT22;51349;52.424;10.840;2022-07-04T18:54:55;23.30;70.00
64869;DHT22;51349;52.424;10.840;2022-07-04T18:59:55;23.20;71.30
64869;DHT22;51349;52.424;10.840;2022-07-04T19:05:00;22.90;71.40
64869;DHT22;51349;52.424;10.840;2022-07-04T19:10:01;22.90;73.30
64869;DHT22;51349;52.424;10.840;2022-07-04T19:15:03;22.80;74.50
64869;DHT22;51349;52.424;10.840;2022-07-04T19:20:04;22.50;73.10
64869;DHT22;51349;52.424;10.840;2022-07-04T19:25:05;22.40;75.30
64869;DHT22;51349;52.424;10.840;2022-07-04T19:30:08;22.10;75.30
64869;DHT22;51349;52.424;10.840;2022-07-04T19:35:10;21.80;76.60
64869;DHT22;51349;52.424;10.840;2022-07-04T19:40:11;21.30;77.00
64869;DHT22;51349;52.424;10.840;2022-07-04T19:45:11;21.20;78.00
64869;DHT22;51349;52.424;10.840;2022-07-04T19:50:12;21.00;78.50
64869;DHT22;51349;52.424;10.840;2022-07-04T19:55:13;20.70;79.20
64869;DHT22;51349;52.424;10.840;2022-07-04T20:00:16;20.70;80.90
64869;DHT22;51349;52.424;10.840;2022-07-04T20:05:18;20.70;81.80
64869;DHT22;51349;52.424;10.840;2022-07-04T20:10:18;20.60;81.70
64869;DHT22;51349;52.424;10.840;2022-07-04T20:15:19;20.30;82.10
64869;DHT22;51349;52.424;10.840;2022-07-04T20:20:20;20.10;82.30
64869;DHT22;51349;52.424;10.840;2022-07-04T20:25:20;19.80;83.90
64869;DHT22;51349;52.424;10.840;2022-07-04T20:30:21;19.80;84.80
64869;DHT22;51349;52.424;10.840;2022-07-04T20:35:22;19.60;84.80
64869;DHT22;51349;52.424;10.840;2022-07-04T20:40:23;19.50;84.80
64869;DHT22;51349;52.424;10.840;2022-07-04T20:45:26;19.40;86.40
64869;DHT22;51349;52.424;10.840;2022-07-04T20:50:27;19.20;87.50
64869;DHT22;51349;52.424;10.840;2022-07-04T20:55:27;19.10;87.00
64869;DHT22;51349;52.424;10.840;2022-07-04T21:00:28;18.80;88.20
64869;DHT22;51349;52.424;10.840;2022-07-04T21:05:29;18.40;89.60
64869;DHT22;51349;52.424;10.840;2022-07-04T21:10:30;18.40;89.80
64869;DHT22;51349;52.424;10.840;2022-07-04T21:15:31;18.40;89.90
64869;DHT22;51349;52.424;10.840;2022-07-04T21:20:32;18.40;90.20
64869;DHT22;51349;52.424;10.840;2022-07-04T21:25:32;18.30;90.60
64869;DHT22;51349;52.424;10.840;2022-07-04T21:30:33;18.20;90.80
64869;DHT22;51349;52.424;10.840;2022-07-04T21:35:34;18.00;91.60
64869;DHT22;51349;52.424;10.840;2022-07-04T21:40:34;17.70;92.10
64869;DHT22;51349;52.424;10.840;2022-07-04T21:45:35;17.50;92.20
64869;DHT22;51349;52.424;10.840;2022-07-04T21:50:36;17.70;92.20
64869;DHT22;51349;52.424;10.840;2022-07-04T21:55:36;17.80;92.00
64869;DHT22;51349;52.424;10.840;2022-07-04T22:00:39;17.80;93.10
64869;DHT22;51349;52.424;10.840;2022-07-04T22:05:39;17.70;94.10
64869;DHT22;51349;52.424;10.840;2022-07-04T22:10:40;17.70;94.30
64869;DHT22;51349;52.424;10.840;2022-07-04T22:15:41;17.70;95.50
64869;DHT22;51349;52.424;10.840;2022-07-04T22:20:41;17.60;95.90
64869;DHT22;51349;52.424;10.840;2022-07-04T22:25:42;17.50;96.10
64869;DHT22;51349;52.424;10.840;2022-07-04T22:30:43;17.40;96.80
64869;DHT22;51349;52.424;10.840;2022-07-04T22:35:43;17.30;97.30
64869;DHT22;51349;52.424;10.840;2022-07-04T22:40:44;17.20;98.10
64869;DHT22;51349;52.424;10.840;2022-07-04T22:45:44;17.10;98.50
64869;DHT22;51349;52.424;10.840;2022-07-04T22:50:45;17.10;98.70
64869;DHT22;51349;52.424;10.840;2022-07-04T22:56:05;17.00;99.70
64869;DHT22;51349;52.424;10.840;2022-07-04T23:01:06;16.90;99.90
64869;DHT22;51349;52.424;10.840;2022-07-04T23:06:06;16.80;99.90
64869;DHT22;51349;52.424;10.840;2022-07-04T23:11:07;16.80;99.90
64869;DHT22;51349;52.424;10.840;2022-07-04T23:16:08;16.70;99.90
64869;DHT22;51349;52.424;10.840;2022-07-04T23:21:09;16.50;99.90
64869;DHT22;51349;52.424;10.840;2022-07-04T23:26:09;16.50;99.90
64869;DHT22;51349;52.424;10.840;2022-07-04T23:31:10;16.30;99.90
64869;DHT22;51349;52.424;10.840;2022-07-04T23:36:11;16.20;99.90
64869;DHT22;51349;52.424;10.840;2022-07-04T23:41:11;16.10;99.90
64869;DHT22;51349;52.424;10.840;2022-07-04T23:46:15;15.90;99.90
64869;DHT22;51349;52.424;10.840;2022-07-04T23:51:16;15.70;99.90
64869;DHT22;51349;52.424;10.840;2022-07-04T23:56:16;15.60;99.90
